sensor_id;sensor_type;location;lat;lon;timestamp;pressure;altitude;pressure_sealevel;temperature;humidity
12969;BME280;6549;53.128;8.182;2023-08-30T00:01:44;100559.03;;;13.82;100.00
12969;BME280;6549;53.128;8.182;2023-08-30T00:04:44;100554.69;;;13.81;100.00
12969;BME280;6549;53.128;8.182;2023-08-30T00:07:44;100546.84;;;13.80;100.00
12969;BME280;6549;53.128;8.182;2023-08-30T00:10:45;100557.09;;;13.79;100.00
12969;BME280;6549;53.128;8.182;2023-08-30T00:13:46;100551.56;;;13.79;100.00
12969;BME280;6549;53.128;8.182;2023-08-30T00:16:48;100548.03;;;13.79;100.00
12969;BME280;6549;53.128;8.182;2023-08-30T00:19:48;100552.34;;;13.80;100.00
12969;BME280;6549;53.128;8.182;2023-08-30T00:22:48;100548.38;;;13.81;100.00
12969;BME280;6549;53.128;8.182;2023-08-30T00:25:49;100549.16;;;13.81;100.00
12969;BME280;6549;53.128;8.182;2023-08-30T00:28:49;100546.78;;;13.83;100.00
12969;BME280;6549;53.128;8.182;2023-08-30T00:31:49;100543.97;;;13.87;100.00
12969;BME280;6549;53.128;8.182;2023-08-30T00:34:50;100537.22;;;13.91;100.00
12969;BME280;6549;53.128;8.182;2023-08-30T00:37:51;100532.88;;;13.90;100.00
12969;BME280;6549;53.128;8.182;2023-08-30T00:40:51;100540.38;;;13.90;100.00
12969;BME280;6549;53.128;8.182;2023-08-30T00:43:52;100534.91;;;13.86;100.00
12969;BME280;6549;53.128;8.182;2023-08-30T00:46:52;100541.16;;;13.90;100.00
12969;BME280;6549;53.128;8.182;2023-08-30T00:49:53;100528.19;;;13.87;100.00
12969;BME280;6549;53.128;8.182;2023-08-30T00:52:53;100521.47;;;13.88;100.00
12969;BME280;6549;53.128;8.182;2023-08-30T00:55:54;100524.59;;;13.90;100.00
12969;BME280;6549;53.128;8.182;2023-08-30T00:58:54;100525.81;;;13.89;100.00
12969;BME280;6549;53.128;8.182;2023-08-30T01:01:55;100525.44;;;13.87;100.00
12969;BME280;6549;53.128;8.182;2023-08-30T01:04:56;100524.63;;;13.87;100.00
12969;BME280;6549;53.128;8.182;2023-08-30T01:07:56;100522.28;;;13.85;100.00
12969;BME280;6549;53.128;8.182;2023-08-30T01:11:06;100522.72;;;13.84;100.00
12969;BME280;6549;53.128;8.182;2023-08-30T01:14:12;100513.25;;;13.81;100.00
12969;BME280;6549;53.128;8.182;2023-08-30T01:17:16;100519.56;;;13.82;100.00
12969;BME280;6549;53.128;8.182;2023-08-30T01:20:18;100518.78;;;13.81;100.00
12969;BME280;6549;53.128;8.182;2023-08-30T01:23:47;100513.63;;;13.83;100.00
12969;BME280;6549;53.128;8.182;2023-08-30T01:27:06;100510.09;;;13.83;100.00
12969;BME280;6549;53.128;8.182;2023-08-30T01:30:08;100507.38;;;13.79;100.00
12969;BME280;6549;53.128;8.182;2023-08-30T01:33:10;100501.47;;;13.77;100.00
12969;BME280;6549;53.128;8.182;2023-08-30T01:36:12;100508.97;;;13.77;100.00
12969;BME280;6549;53.128;8.182;2023-08-30T01:39:13;100504.69;;;13.72;100.00
12969;BME280;6549;53.128;8.182;2023-08-30T01:42:15;100509.91;;;13.67;100.00
12969;BME280;6549;53.128;8.182;2023-08-30T01:45:15;100512.31;;;13.61;100.00
12969;BME280;6549;53.128;8.182;2023-08-30T01:48:17;100497.78;;;13.57;100.00
12969;BME280;6549;53.128;8.182;2023-08-30T01:51:18;100510.47;;;13.51;100.00
12969;BME280;6549;53.128;8.182;2023-08-30T01:54:20;100510.19;;;13.38;100.00
12969;BME280;6549;53.128;8.182;2023-08-30T01:57:21;100513.03;;;13.31;100.00
12969;BME280;6549;53.128;8.182;2023-08-30T02:00:21;100506.78;;;13.27;100.00
12969;BME280;6549;53.128;8.182;2023-08-30T02:03:21;100509.56;;;13.24;100.00
12969;BME280;6549;53.128;8.182;2023-08-30T02:06:26;100519.03;;;13.23;100.00
12969;BME280;6549;53.128;8.182;2023-08-30T02:09:49;100516.72;;;13.18;100.00
12969;BME280;6549;53.128;8.182;2023-08-30T02:12:53;100523.81;;;13.15;100.00
12969;BME280;6549;53.128;8.182;2023-08-30T02:15:55;100519.91;;;13.13;100.00
12969;BME280;6549;53.128;8.182;2023-08-30T02:18:57;100519.13;;;13.09;100.00
12969;BME280;6549;53.128;8.182;2023-08-30T02:21:57;100510.47;;;13.06;100.00
12969;BME280;6549;53.128;8.182;2023-08-30T02:24:57;100510.47;;;13.06;100.00
12969;BME280;6549;53.128;8.182;2023-08-30T02:27:58;100511.31;;;13.03;100.00
12969;BME280;6549;53.128;8.182;2023-08-30T02:30:58;100503.47;;;12.98;100.00
12969;BME280;6549;53.128;8.182;2023-08-30T02:33:58;100503.09;;;12.96;100.00
12969;BME280;6549;53.128;8.182;2023-08-30T02:36:59;100501.53;;;12.95;100.00
12969;BME280;6549;53.128;8.182;2023-08-30T02:39:59;100512.56;;;12.95;100.00
12969;BME280;6549;53.128;8.182;2023-08-30T02:43:00;100507.47;;;12.90;100.00
12969;BME280;6549;53.128;8.182;2023-08-30T02:46:00;100512.25;;;12.86;100.00
12969;BME280;6549;53.128;8.182;2023-08-30T02:49:01;100505.16;;;12.85;100.00
12969;BME280;6549;53.128;8.182;2023-08-30T02:52:02;100503.97;;;12.86;100.00
12969;BME280;6549;53.128;8.182;2023-08-30T02:55:03;100499.63;;;12.85;100.00
12969;BME280;6549;53.128;8.182;2023-08-30T02:58:03;100505.53;;;12.84;100.00
12969;BME280;6549;53.128;8.182;2023-08-30T03:01:04;100505.19;;;12.82;100.00
12969;BME280;6549;53.128;8.182;2023-08-30T03:04:05;100502.47;;;12.75;100.00
12969;BME280;6549;53.128;8.182;2023-08-30T03:07:06;100498.97;;;12.71;100.00
12969;BME280;6549;53.128;8.182;2023-08-30T03:10:07;100500.56;;;12.68;100.00
12969;BME280;6549;53.128;8.182;2023-08-30T03:13:07;100504.50;;;12.67;100.00
12969;BME280;6549;53.128;8.182;2023-08-30T03:16:11;100500.56;;;12.68;100.00
12969;BME280;6549;53.128;8.182;2023-08-30T03:19:12;100504.13;;;12.69;100.00
12969;BME280;6549;53.128;8.182;2023-08-30T03:22:12;100503.69;;;12.70;100.00
12969;BME280;6549;53.128;8.182;2023-08-30T03:25:12;100500.94;;;12.70;100.00
12969;BME280;6549;53.128;8.182;2023-08-30T03:28:13;100496.63;;;12.69;100.00
12969;BME280;6549;53.128;8.182;2023-08-30T03:31:20;100491.13;;;12.69;100.00
12969;BME280;6549;53.128;8.182;2023-08-30T03:34:21;100491.91;;;12.66;100.00
12969;BME280;6549;53.128;8.182;2023-08-30T03:37:21;100500.63;;;12.61;100.00
12969;BME280;6549;53.128;8.182;2023-08-30T03:40:21;100498.31;;;12.56;100.00
12969;BME280;6549;53.128;8.182;2023-08-30T03:43:22;100498.31;;;12.56;100.00
12969;BME280;6549;53.128;8.182;2023-08-30T03:46:22;100492.00;;;12.55;100.00
12969;BME280;6549;53.128;8.182;2023-08-30T03:49:22;100491.22;;;12.55;100.00
12969;BME280;6549;53.128;8.182;2023-08-30T03:52:23;100491.25;;;12.51;100.00
12969;BME280;6549;53.128;8.182;2023-08-30T03:55:23;100492.81;;;12.49;100.00
12969;BME280;6549;53.128;8.182;2023-08-30T03:58:24;100478.69;;;12.47;100.00
12969;BME280;6549;53.128;8.182;2023-08-30T04:01:24;100475.91;;;12.47;100.00
12969;BME280;6549;53.128;8.182;2023-08-30T04:04:25;100470.81;;;12.45;100.00
12969;BME280;6549;53.128;8.182;2023-08-30T04:07:25;100464.53;;;12.41;100.00
12969;BME280;6549;53.128;8.182;2023-08-30T04:10:25;100464.16;;;12.43;100.00
12969;BME280;6549;53.128;8.182;2023-08-30T04:13:26;100462.56;;;12.42;100.00
12969;BME280;6549;53.128;8.182;2023-08-30T04:16:26;100449.63;;;12.39;100.00
12969;BME280;6549;53.128;8.182;2023-08-30T04:19:26;100451.19;;;12.36;100.00
12969;BME280;6549;53.128;8.182;2023-08-30T04:22:27;100440.16;;;12.36;100.00
12969;BME280;6549;53.128;8.182;2023-08-30T04:25:31;100437.44;;;12.33;100.00
12969;BME280;6549;53.128;8.182;2023-08-30T04:28:31;100437.88;;;12.28;100.00
12969;BME280;6549;53.128;8.182;2023-08-30T04:31:31;100443.41;;;12.24;100.00
12969;BME280;6549;53.128;8.182;2023-08-30T04:34:32;100439.47;;;12.22;100.00
12969;BME280;6549;53.128;8.182;2023-08-30T04:37:32;100441.09;;;12.15;100.00
12969;BME280;6549;53.128;8.182;2023-08-30T04:40:32;100436.41;;;12.12;100.00
12969;BME280;6549;53.128;8.182;2023-08-30T04:43:33;100436.84;;;12.07;100.00
12969;BME280;6549;53.128;8.182;2023-08-30T04:46:33;100436.06;;;12.03;100.00
12969;BME280;6549;53.128;8.182;2023-08-30T04:49:33;100435.69;;;12.01;100.00
12969;BME280;6549;53.128;8.182;2023-08-30T04:52:34;100431.78;;;11.99;100.00
12969;BME280;6549;53.128;8.182;2023-08-30T04:55:34;100425.06;;;12.00;100.00
12969;BME280;6549;53.128;8.182;2023-08-30T04:58:34;100425.47;;;11.98;100.00
12969;BME280;6549;53.128;8.182;2023-08-30T05:01:35;100425.88;;;11.97;100.00
12969;BME280;6549;53.128;8.182;2023-08-30T05:04:35;100426.25;;;11.95;100.00
12969;BME280;6549;53.128;8.182;2023-08-30T05:07:36;100429.44;;;11.94;100.00
12969;BME280;6549;53.128;8.182;2023-08-30T05:10:36;100428.69;;;11.90;100.00
12969;BME280;6549;53.128;8.182;2023-08-30T05:13:36;100425.50;;;11.91;100.00
12969;BME280;6549;53.128;8.182;2023-08-30T05:16:37;100414.50;;;11.91;100.00
12969;BME280;6549;53.128;8.182;2023-08-30T05:19:37;100408.19;;;11.94;100.00
12969;BME280;6549;53.128;8.182;2023-08-30T05:22:37;100418.44;;;11.94;100.00
12969;BME280;6549;53.128;8.182;2023-08-30T05:25:38;100415.66;;;11.94;100.00
12969;BME280;6549;53.128;8.182;2023-08-30T05:28:38;100412.88;;;11.97;100.00
12969;BME280;6549;53.128;8.182;2023-08-30T05:31:39;100413.66;;;12.01;100.00
12969;BME280;6549;53.128;8.182;2023-08-30T05:34:40;100407.69;;;12.10;100.00
12969;BME280;6549;53.128;8.182;2023-08-30T05:37:40;100410.38;;;12.21;100.00
12969;BME280;6549;53.128;8.182;2023-08-30T05:40:40;100405.19;;;12.30;100.00
12969;BME280;6549;53.128;8.182;2023-08-30T05:43:44;100406.72;;;12.38;100.00
12969;BME280;6549;53.128;8.182;2023-08-30T05:46:45;100403.88;;;12.45;100.00
12969;BME280;6549;53.128;8.182;2023-08-30T05:49:45;100394.34;;;12.53;100.00
12969;BME280;6549;53.128;8.182;2023-08-30T05:52:45;100391.13;;;12.61;100.00
12969;BME280;6549;53.128;8.182;2023-08-30T05:55:46;100397.81;;;12.64;100.00
12969;BME280;6549;53.128;8.182;2023-08-30T05:58:46;100398.47;;;12.75;100.00
12969;BME280;6549;53.128;8.182;2023-08-30T06:01:46;100394.50;;;12.83;100.00
12969;BME280;6549;53.128;8.182;2023-08-30T06:04:47;100399.88;;;12.94;100.00
12969;BME280;6549;53.128;8.182;2023-08-30T06:07:47;100392.41;;;12.94;100.00
12969;BME280;6549;53.128;8.182;2023-08-30T06:10:47;100399.00;;;13.04;100.00
12969;BME280;6549;53.128;8.182;2023-08-30T06:13:48;100392.22;;;13.12;100.00
12969;BME280;6549;53.128;8.182;2023-08-30T06:16:48;100398.81;;;13.22;100.00
12969;BME280;6549;53.128;8.182;2023-08-30T06:19:49;100395.16;;;13.32;100.00
12969;BME280;6549;53.128;8.182;2023-08-30T06:22:49;100385.50;;;13.47;100.00
12969;BME280;6549;53.128;8.182;2023-08-30T06:25:56;100388.44;;;13.63;100.00
12969;BME280;6549;53.128;8.182;2023-08-30T06:28:56;100383.56;;;13.74;100.00
12969;BME280;6549;53.128;8.182;2023-08-30T06:31:58;100378.66;;;13.85;100.00
12969;BME280;6549;53.128;8.182;2023-08-30T06:34:58;100379.19;;;14.04;100.00
12969;BME280;6549;53.128;8.182;2023-08-30T06:37:59;100387.72;;;14.13;100.00
12969;BME280;6549;53.128;8.182;2023-08-30T06:41:00;100385.13;;;14.29;100.00
12969;BME280;6549;53.128;8.182;2023-08-30T06:44:00;100380.16;;;14.44;100.00
12969;BME280;6549;53.128;8.182;2023-08-30T06:47:00;100383.88;;;14.57;100.00
12969;BME280;6549;53.128;8.182;2023-08-30T06:50:01;100381.72;;;14.68;100.00
12969;BME280;6549;53.128;8.182;2023-08-30T06:53:02;100388.22;;;14.81;100.00
12969;BME280;6549;53.128;8.182;2023-08-30T06:56:03;100383.19;;;14.96;100.00
12969;BME280;6549;53.128;8.182;2023-08-30T06:59:03;100382.06;;;15.13;100.00
12969;BME280;6549;53.128;8.182;2023-08-30T07:02:04;100390.28;;;15.36;100.00
12969;BME280;6549;53.128;8.182;2023-08-30T07:05:04;100381.22;;;15.55;100.00
12969;BME280;6549;53.128;8.182;2023-08-30T07:08:05;100381.78;;;15.66;100.00
12969;BME280;6549;53.128;8.182;2023-08-30T07:11:05;100375.78;;;15.88;100.00
12969;BME280;6549;53.128;8.182;2023-08-30T07:14:05;100372.50;;;15.93;100.00
12969;BME280;6549;53.128;8.182;2023-08-30T07:17:06;100352.56;;;15.98;100.00
12969;BME280;6549;53.128;8.182;2023-08-30T07:20:08;100360.72;;;16.21;100.00
12969;BME280;6549;53.128;8.182;2023-08-30T07:23:08;100366.59;;;16.39;100.00
12969;BME280;6549;53.128;8.182;2023-08-30T07:26:10;100368.34;;;16.66;100.00
12969;BME280;6549;53.128;8.182;2023-08-30T07:29:10;100368.44;;;16.91;100.00
12969;BME280;6549;53.128;8.182;2023-08-30T07:32:11;100372.16;;;17.00;100.00
12969;BME280;6549;53.128;8.182;2023-08-30T07:35:11;100377.31;;;17.15;100.00
12969;BME280;6549;53.128;8.182;2023-08-30T07:38:12;100366.94;;;17.44;100.00
12969;BME280;6549;53.128;8.182;2023-08-30T07:41:12;100371.69;;;17.31;100.00
12969;BME280;6549;53.128;8.182;2023-08-30T07:44:13;100372.06;;;17.45;100.00
12969;BME280;6549;53.128;8.182;2023-08-30T07:47:13;100370.84;;;17.46;100.00
12969;BME280;6549;53.128;8.182;2023-08-30T07:50:13;100370.63;;;17.53;100.00
12969;BME280;6549;53.128;8.182;2023-08-30T07:53:14;100382.03;;;17.72;100.00
12969;BME280;6549;53.128;8.182;2023-08-30T07:56:14;100386.50;;;17.82;100.00
12969;BME280;6549;53.128;8.182;2023-08-30T07:59:14;100375.72;;;18.09;100.00
12969;BME280;6549;53.128;8.182;2023-08-30T08:02:15;100376.91;;;18.21;100.00
12969;BME280;6549;53.128;8.182;2023-08-30T08:05:15;100374.66;;;18.41;100.00
12969;BME280;6549;53.128;8.182;2023-08-30T08:08:15;100385.28;;;18.80;100.00
12969;BME280;6549;53.128;8.182;2023-08-30T08:11:17;100371.00;;;19.13;100.00
12969;BME280;6549;53.128;8.182;2023-08-30T08:14:17;100375.78;;;19.34;100.00
12969;BME280;6549;53.128;8.182;2023-08-30T08:17:17;100378.59;;;19.56;100.00
12969;BME280;6549;53.128;8.182;2023-08-30T08:20:18;100370.75;;;19.63;100.00
12969;BME280;6549;53.128;8.182;2023-08-30T08:23:18;100373.47;;;19.85;100.00
12969;BME280;6549;53.128;8.182;2023-08-30T08:26:18;100358.22;;;19.68;100.00
12969;BME280;6549;53.128;8.182;2023-08-30T08:29:19;100361.00;;;19.68;100.00
12969;BME280;6549;53.128;8.182;2023-08-30T08:32:19;100360.94;;;19.90;100.00
12969;BME280;6549;53.128;8.182;2023-08-30T08:35:20;100363.25;;;19.82;100.00
12969;BME280;6549;53.128;8.182;2023-08-30T08:38:21;100361.28;;;20.01;100.00
12969;BME280;6549;53.128;8.182;2023-08-30T08:41:23;100361.84;;;20.17;100.00
12969;BME280;6549;53.128;8.182;2023-08-30T08:44:32;100362.13;;;20.19;100.00
12969;BME280;6549;53.128;8.182;2023-08-30T08:47:33;100358.38;;;20.04;100.00
12969;BME280;6549;53.128;8.182;2023-08-30T08:50:33;100370.06;;;20.21;100.00
12969;BME280;6549;53.128;8.182;2023-08-30T08:53:34;100366.53;;;19.90;100.00
12969;BME280;6549;53.128;8.182;2023-08-30T08:56:35;100363.28;;;19.91;100.00
12969;BME280;6549;53.128;8.182;2023-08-30T08:59:35;100354.66;;;20.07;100.00
12969;BME280;6549;53.128;8.182;2023-08-30T09:02:36;100367.75;;;20.29;100.00
12969;BME280;6549;53.128;8.182;2023-08-30T09:05:37;100367.34;;;20.48;100.00
12969;BME280;6549;53.128;8.182;2023-08-30T09:08:38;100365.03;;;20.56;94.02
12969;BME280;6549;53.128;8.182;2023-08-30T09:11:39;100364.53;;;20.30;94.41
12969;BME280;6549;53.128;8.182;2023-08-30T09:14:39;100368.97;;;20.28;94.20
12969;BME280;6549;53.128;8.182;2023-08-30T09:17:40;100369.06;;;20.64;90.33
12969;BME280;6549;53.128;8.182;2023-08-30T09:20:40;100363.97;;;20.90;92.14
12969;BME280;6549;53.128;8.182;2023-08-30T09:23:40;100367.09;;;21.19;84.80
12969;BME280;6549;53.128;8.182;2023-08-30T09:26:47;100364.13;;;21.04;84.13
12969;BME280;6549;53.128;8.182;2023-08-30T09:29:48;100358.22;;;20.93;83.83
12969;BME280;6549;53.128;8.182;2023-08-30T09:32:48;100353.88;;;21.29;86.33
12969;BME280;6549;53.128;8.182;2023-08-30T09:35:48;100359.09;;;21.54;77.33
12969;BME280;6549;53.128;8.182;2023-08-30T09:38:49;100355.00;;;21.73;75.38
12969;BME280;6549;53.128;8.182;2023-08-30T09:41:50;100353.13;;;21.79;74.73
12969;BME280;6549;53.128;8.182;2023-08-30T09:44:50;100348.34;;;22.13;77.90
12969;BME280;6549;53.128;8.182;2023-08-30T09:47:51;100346.84;;;22.26;72.02
12969;BME280;6549;53.128;8.182;2023-08-30T09:50:53;100338.25;;;22.06;73.11
12969;BME280;6549;53.128;8.182;2023-08-30T09:53:58;100342.00;;;22.03;74.78
12969;BME280;6549;53.128;8.182;2023-08-30T09:57:04;100341.91;;;22.21;76.02
12969;BME280;6549;53.128;8.182;2023-08-30T10:00:05;100330.53;;;22.49;72.73
12969;BME280;6549;53.128;8.182;2023-08-30T10:03:06;100325.28;;;22.65;71.18
12969;BME280;6549;53.128;8.182;2023-08-30T10:06:07;100325.56;;;22.67;73.98
12969;BME280;6549;53.128;8.182;2023-08-30T10:09:08;100321.34;;;22.01;72.60
12969;BME280;6549;53.128;8.182;2023-08-30T10:12:10;100318.28;;;21.38;78.12
12969;BME280;6549;53.128;8.182;2023-08-30T10:15:11;100318.47;;;21.35;80.87
12969;BME280;6549;53.128;8.182;2023-08-30T10:18:11;100327.06;;;21.64;79.45
12969;BME280;6549;53.128;8.182;2023-08-30T10:21:18;100328.97;;;21.58;81.52
12969;BME280;6549;53.128;8.182;2023-08-30T10:24:19;100315.69;;;21.26;82.50
12969;BME280;6549;53.128;8.182;2023-08-30T10:27:22;100320.50;;;21.25;80.42
12969;BME280;6549;53.128;8.182;2023-08-30T10:30:23;100318.31;;;21.11;79.41
12969;BME280;6549;53.128;8.182;2023-08-30T10:33:25;100315.69;;;21.07;90.67
12969;BME280;6549;53.128;8.182;2023-08-30T10:36:26;100307.94;;;20.93;89.80
12969;BME280;6549;53.128;8.182;2023-08-30T10:39:36;100310.28;;;20.86;93.34
12969;BME280;6549;53.128;8.182;2023-08-30T10:42:37;100318.53;;;20.53;88.94
12969;BME280;6549;53.128;8.182;2023-08-30T10:45:37;100311.59;;;20.08;92.30
12969;BME280;6549;53.128;8.182;2023-08-30T10:48:39;100310.97;;;19.64;95.32
12969;BME280;6549;53.128;8.182;2023-08-30T10:51:41;100315.00;;;19.42;100.00
12969;BME280;6549;53.128;8.182;2023-08-30T10:54:41;100302.59;;;19.34;100.00
12969;BME280;6549;53.128;8.182;2023-08-30T10:57:44;100303.03;;;19.32;100.00
12969;BME280;6549;53.128;8.182;2023-08-30T11:00:46;100292.81;;;19.29;100.00
12969;BME280;6549;53.128;8.182;2023-08-30T11:03:47;100296.00;;;19.18;100.00
12969;BME280;6549;53.128;8.182;2023-08-30T11:06:50;100292.88;;;19.16;100.00
12969;BME280;6549;53.128;8.182;2023-08-30T11:09:52;100285.19;;;19.20;100.00
12969;BME280;6549;53.128;8.182;2023-08-30T11:12:52;100281.47;;;19.23;100.00
12969;BME280;6549;53.128;8.182;2023-08-30T11:15:53;100277.25;;;18.88;100.00
12969;BME280;6549;53.128;8.182;2023-08-30T11:18:53;100276.19;;;18.73;100.00
12969;BME280;6549;53.128;8.182;2023-08-30T11:21:54;100276.47;;;18.66;100.00
12969;BME280;6549;53.128;8.182;2023-08-30T11:24:54;100276.28;;;18.48;100.00
12969;BME280;6549;53.128;8.182;2023-08-30T11:28:04;100266.47;;;18.56;100.00
12969;BME280;6549;53.128;8.182;2023-08-30T11:31:04;100264.69;;;18.62;100.00
12969;BME280;6549;53.128;8.182;2023-08-30T11:34:05;100267.53;;;18.71;100.00
12969;BME280;6549;53.128;8.182;2023-08-30T11:37:05;100258.66;;;18.85;100.00
12969;BME280;6549;53.128;8.182;2023-08-30T11:40:06;100269.09;;;18.94;100.00
12969;BME280;6549;53.128;8.182;2023-08-30T11:43:07;100269.53;;;18.92;100.00
12969;BME280;6549;53.128;8.182;2023-08-30T11:46:09;100262.09;;;18.89;100.00
12969;BME280;6549;53.128;8.182;2023-08-30T11:49:09;100264.88;;;18.89;100.00
12969;BME280;6549;53.128;8.182;2023-08-30T11:52:10;100268.63;;;18.95;100.00
12969;BME280;6549;53.128;8.182;2023-08-30T11:55:11;100260.47;;;18.79;100.00
12969;BME280;6549;53.128;8.182;2023-08-30T11:58:12;100261.25;;;18.58;100.00
12969;BME280;6549;53.128;8.182;2023-08-30T12:01:12;100257.81;;;18.54;100.00
12969;BME280;6549;53.128;8.182;2023-08-30T12:04:13;100255.81;;;18.54;100.00
12969;BME280;6549;53.128;8.182;2023-08-30T12:07:24;100251.88;;;18.52;100.00
12969;BME280;6549;53.128;8.182;2023-08-30T12:10:25;100254.94;;;18.45;100.00
12969;BME280;6549;53.128;8.182;2023-08-30T12:13:28;100254.03;;;18.48;100.00
12969;BME280;6549;53.128;8.182;2023-08-30T12:16:28;100249.81;;;18.43;100.00
12969;BME280;6549;53.128;8.182;2023-08-30T12:19:29;100247.94;;;18.40;100.00
12969;BME280;6549;53.128;8.182;2023-08-30T12:22:39;100240.94;;;18.35;100.00
12969;BME280;6549;53.128;8.182;2023-08-30T12:25:39;100239.81;;;18.33;100.00
12969;BME280;6549;53.128;8.182;2023-08-30T12:28:41;100233.59;;;18.29;100.00
12969;BME280;6549;53.128;8.182;2023-08-30T12:31:44;100227.59;;;18.30;100.00
12969;BME280;6549;53.128;8.182;2023-08-30T12:34:44;100218.13;;;18.28;100.00
12969;BME280;6549;53.128;8.182;2023-08-30T12:37:44;100227.25;;;18.28;100.00
12969;BME280;6549;53.128;8.182;2023-08-30T12:40:50;100221.69;;;18.28;100.00
12969;BME280;6549;53.128;8.182;2023-08-30T12:43:50;100211.44;;;18.38;100.00
12969;BME280;6549;53.128;8.182;2023-08-30T12:46:51;100215.56;;;18.33;100.00
12969;BME280;6549;53.128;8.182;2023-08-30T12:49:51;100219.84;;;18.25;100.00
12969;BME280;6549;53.128;8.182;2023-08-30T12:52:52;100216.19;;;18.16;100.00
12969;BME280;6549;53.128;8.182;2023-08-30T12:55:52;100206.34;;;18.02;100.00
12969;BME280;6549;53.128;8.182;2023-08-30T12:58:52;100211.97;;;17.77;100.00
12969;BME280;6549;53.128;8.182;2023-08-30T13:01:52;100218.63;;;17.54;100.00
12969;BME280;6549;53.128;8.182;2023-08-30T13:04:53;100212.84;;;17.48;100.00
12969;BME280;6549;53.128;8.182;2023-08-30T13:07:53;100215.75;;;17.45;100.00
12969;BME280;6549;53.128;8.182;2023-08-30T13:10:53;100211.28;;;17.35;100.00
12969;BME280;6549;53.128;8.182;2023-08-30T13:13:54;100209.41;;;17.32;100.00
12969;BME280;6549;53.128;8.182;2023-08-30T13:16:54;100212.19;;;17.32;100.00
12969;BME280;6549;53.128;8.182;2023-08-30T13:19:54;100206.41;;;17.26;100.00
12969;BME280;6549;53.128;8.182;2023-08-30T13:22:56;100204.88;;;17.13;100.00
12969;BME280;6549;53.128;8.182;2023-08-30T13:25:57;100210.06;;;17.11;100.00
12969;BME280;6549;53.128;8.182;2023-08-30T13:28:57;100206.19;;;17.08;100.00
12969;BME280;6549;53.128;8.182;2023-08-30T13:31:59;100200.66;;;17.08;100.00
12969;BME280;6549;53.128;8.182;2023-08-30T13:34:59;100212.97;;;17.07;100.00
12969;BME280;6549;53.128;8.182;2023-08-30T13:37:59;100212.50;;;17.08;100.00
12969;BME280;6549;53.128;8.182;2023-08-30T13:40:59;100209.59;;;16.87;100.00
12969;BME280;6549;53.128;8.182;2023-08-30T13:44:00;100211.78;;;16.79;100.00
12969;BME280;6549;53.128;8.182;2023-08-30T13:47:00;100199.78;;;16.70;100.00
12969;BME280;6549;53.128;8.182;2023-08-30T13:50:01;100203.88;;;16.65;100.00
12969;BME280;6549;53.128;8.182;2023-08-30T13:53:02;100191.16;;;16.51;100.00
12969;BME280;6549;53.128;8.182;2023-08-30T13:56:02;100195.25;;;16.47;100.00
12969;BME280;6549;53.128;8.182;2023-08-30T13:59:02;100191.47;;;16.41;100.00
12969;BME280;6549;53.128;8.182;2023-08-30T14:02:03;100189.25;;;16.36;100.00
12969;BME280;6549;53.128;8.182;2023-08-30T14:05:04;100187.97;;;16.24;100.00
12969;BME280;6549;53.128;8.182;2023-08-30T14:08:05;100196.91;;;16.15;100.00
12969;BME280;6549;53.128;8.182;2023-08-30T14:11:05;100191.97;;;16.07;100.00
12969;BME280;6549;53.128;8.182;2023-08-30T14:14:05;100188.47;;;15.90;100.00
12969;BME280;6549;53.128;8.182;2023-08-30T14:17:06;100188.22;;;15.85;100.00
12969;BME280;6549;53.128;8.182;2023-08-30T14:20:07;100186.50;;;15.75;100.00
12969;BME280;6549;53.128;8.182;2023-08-30T14:23:07;100178.28;;;15.71;100.00
12969;BME280;6549;53.128;8.182;2023-08-30T14:26:07;100174.06;;;15.66;100.00
12969;BME280;6549;53.128;8.182;2023-08-30T14:29:12;100177.66;;;15.63;100.00
12969;BME280;6549;53.128;8.182;2023-08-30T14:32:13;100177.75;;;15.60;100.00
12969;BME280;6549;53.128;8.182;2023-08-30T14:35:13;100172.31;;;15.56;100.00
12969;BME280;6549;53.128;8.182;2023-08-30T14:38:13;100173.53;;;15.55;100.00
12969;BME280;6549;53.128;8.182;2023-08-30T14:41:14;100169.69;;;15.49;100.00
12969;BME280;6549;53.128;8.182;2023-08-30T14:44:16;100170.13;;;15.48;100.00
12969;BME280;6549;53.128;8.182;2023-08-30T14:47:17;100168.91;;;15.49;100.00
12969;BME280;6549;53.128;8.182;2023-08-30T14:50:18;100169.84;;;15.42;100.00
12969;BME280;6549;53.128;8.182;2023-08-30T14:53:18;100161.97;;;15.41;100.00
12969;BME280;6549;53.128;8.182;2023-08-30T14:56:18;100158.88;;;15.39;100.00
12969;BME280;6549;53.128;8.182;2023-08-30T14:59:19;100161.19;;;15.40;100.00
12969;BME280;6549;53.128;8.182;2023-08-30T15:02:19;100162.34;;;15.43;100.00
12969;BME280;6549;53.128;8.182;2023-08-30T15:05:19;100162.25;;;15.46;100.00
12969;BME280;6549;53.128;8.182;2023-08-30T15:08:20;100158.78;;;15.42;100.00
12969;BME280;6549;53.128;8.182;2023-08-30T15:11:20;100153.25;;;15.42;100.00
12969;BME280;6549;53.128;8.182;2023-08-30T15:14:20;100152.47;;;15.42;100.00
12969;BME280;6549;53.128;8.182;2023-08-30T15:17:21;100149.78;;;15.38;100.00
12969;BME280;6549;53.128;8.182;2023-08-30T15:20:21;100151.19;;;15.30;100.00
12969;BME280;6549;53.128;8.182;2023-08-30T15:23:21;100146.66;;;15.36;100.00
12969;BME280;6549;53.128;8.182;2023-08-30T15:26:22;100146.84;;;15.29;100.00
12969;BME280;6549;53.128;8.182;2023-08-30T15:29:22;100144.59;;;15.40;100.00
12969;BME280;6549;53.128;8.182;2023-08-30T15:32:22;100145.50;;;15.53;100.00
12969;BME280;6549;53.128;8.182;2023-08-30T15:35:24;100142.13;;;15.62;100.00
12969;BME280;6549;53.128;8.182;2023-08-30T15:38:24;100142.88;;;15.79;100.00
12969;BME280;6549;53.128;8.182;2023-08-30T15:41:25;100147.88;;;15.84;100.00
12969;BME280;6549;53.128;8.182;2023-08-30T15:44:25;100149.25;;;15.92;100.00
12969;BME280;6549;53.128;8.182;2023-08-30T15:47:25;100136.59;;;15.91;100.00